sensor_id;sensor_type;location;lat;lon;timestamp;P1;durP1;ratioP1;P2;durP2;ratioP2
34072;SDS011;20346;52.702;16.886;2023-04-19T01:31:47;3.30;;;2.20;;
34072;SDS011;20346;52.702;16.886;2023-04-19T01:40:25;5.00;;;2.30;;
34072;SDS011;20346;52.702;16.886;2023-04-19T02:03:27;5.10;;;2.10;;
34072;SDS011;20346;52.702;16.886;2023-04-19T02:20:38;5.10;;;2.40;;
34072;SDS011;20346;52.702;16.886;2023-04-19T02:23:18;3.50;;;2.20;;
34072;SDS011;20346;52.702;16.886;2023-04-19T02:25:58;3.60;;;2.50;;
34072;SDS011;20346;52.702;16.886;2023-04-19T02:28:38;11.20;;;2.20;;
34072;SDS011;20346;52.702;16.886;2023-04-19T02:43:02;4.80;;;2.10;;
34072;SDS011;20346;52.702;16.886;2023-04-19T02:48:36;6.40;;;2.90;;
34072;SDS011;20346;52.702;16.886;2023-04-19T02:51:16;2.90;;;2.10;;
34072;SDS011;20346;52.702;16.886;2023-04-19T03:08:30;7.00;;;3.00;;
34072;SDS011;20346;52.702;16.886;2023-04-19T03:14:04;5.80;;;2.90;;
34072;SDS011;20346;52.702;16.886;2023-04-19T03:16:45;9.80;;;3.10;;
34072;SDS011;20346;52.702;16.886;2023-04-19T03:28:08;9.20;;;3.00;;
34072;SDS011;20346;52.702;16.886;2023-04-19T03:33:45;6.90;;;3.00;;
34072;SDS011;20346;52.702;16.886;2023-04-19T03:36:25;4.30;;;2.70;;
34072;SDS011;20346;52.702;16.886;2023-04-19T03:44:53;33.60;;;14.50;;
34072;SDS011;20346;52.702;16.886;2023-04-19T03:56:20;4.40;;;3.10;;
34072;SDS011;20346;52.702;16.886;2023-04-19T04:04:55;4.80;;;2.80;;
34072;SDS011;20346;52.702;16.886;2023-04-19T04:13:26;2.60;;;2.30;;
34072;SDS011;20346;52.702;16.886;2023-04-19T04:16:06;4.90;;;2.50;;
34072;SDS011;20346;52.702;16.886;2023-04-19T04:24:47;7.80;;;3.30;;
34072;SDS011;20346;52.702;16.886;2023-04-19T04:27:27;4.10;;;2.60;;
34072;SDS011;20346;52.702;16.886;2023-04-19T04:30:07;5.40;;;2.90;;
34072;SDS011;20346;52.702;16.886;2023-04-19T04:35:42;3.80;;;2.50;;
34072;SDS011;20346;52.702;16.886;2023-04-19T04:38:22;5.90;;;2.50;;
34072;SDS011;20346;52.702;16.886;2023-04-19T04:41:02;4.50;;;2.80;;
34072;SDS011;20346;52.702;16.886;2023-04-19T04:46:36;3.50;;;3.10;;
34072;SDS011;20346;52.702;16.886;2023-04-19T04:49:18;6.40;;;3.40;;
34072;SDS011;20346;52.702;16.886;2023-04-19T04:51:57;7.70;;;2.60;;
34072;SDS011;20346;52.702;16.886;2023-04-19T04:54:37;5.70;;;3.00;;
34072;SDS011;20346;52.702;16.886;2023-04-19T04:57:17;6.40;;;2.90;;
34072;SDS011;20346;52.702;16.886;2023-04-19T04:59:57;4.40;;;2.40;;
34072;SDS011;20346;52.702;16.886;2023-04-19T05:02:40;4.50;;;2.50;;
34072;SDS011;20346;52.702;16.886;2023-04-19T05:05:21;4.20;;;3.10;;
34072;SDS011;20346;52.702;16.886;2023-04-19T05:08:02;3.00;;;2.20;;
34072;SDS011;20346;52.702;16.886;2023-04-19T05:10:42;5.30;;;2.40;;
34072;SDS011;20346;52.702;16.886;2023-04-19T05:16:17;3.30;;;2.50;;
34072;SDS011;20346;52.702;16.886;2023-04-19T05:18:57;4.50;;;2.60;;
34072;SDS011;20346;52.702;16.886;2023-04-19T05:27:26;4.70;;;2.40;;
34072;SDS011;20346;52.702;16.886;2023-04-19T05:30:08;5.50;;;2.90;;
34072;SDS011;20346;52.702;16.886;2023-04-19T05:32:49;8.20;;;3.00;;
34072;SDS011;20346;52.702;16.886;2023-04-19T05:35:30;5.20;;;2.70;;
34072;SDS011;20346;52.702;16.886;2023-04-19T05:41:04;4.90;;;2.60;;
34072;SDS011;20346;52.702;16.886;2023-04-19T05:43:45;4.60;;;2.50;;
34072;SDS011;20346;52.702;16.886;2023-04-19T05:46:26;3.90;;;2.80;;
34072;SDS011;20346;52.702;16.886;2023-04-19T05:49:09;2.70;;;2.20;;
34072;SDS011;20346;52.702;16.886;2023-04-19T05:51:52;5.90;;;2.90;;
34072;SDS011;20346;52.702;16.886;2023-04-19T05:57:28;9.30;;;2.90;;
34072;SDS011;20346;52.702;16.886;2023-04-19T06:00:11;7.00;;;3.00;;
34072;SDS011;20346;52.702;16.886;2023-04-19T06:02:53;4.60;;;2.10;;
34072;SDS011;20346;52.702;16.886;2023-04-19T06:05:33;3.60;;;2.40;;
34072;SDS011;20346;52.702;16.886;2023-04-19T06:08:13;6.30;;;2.50;;
34072;SDS011;20346;52.702;16.886;2023-04-19T06:10:53;5.60;;;2.80;;
34072;SDS011;20346;52.702;16.886;2023-04-19T06:13:35;10.50;;;3.10;;
34072;SDS011;20346;52.702;16.886;2023-04-19T06:16:14;5.70;;;3.70;;
34072;SDS011;20346;52.702;16.886;2023-04-19T06:18:54;6.90;;;3.40;;
34072;SDS011;20346;52.702;16.886;2023-04-19T06:21:34;7.50;;;3.50;;
34072;SDS011;20346;52.702;16.886;2023-04-19T06:24:14;4.80;;;2.60;;
34072;SDS011;20346;52.702;16.886;2023-04-19T06:26:55;11.80;;;3.20;;
34072;SDS011;20346;52.702;16.886;2023-04-19T06:29:36;8.60;;;3.40;;
34072;SDS011;20346;52.702;16.886;2023-04-19T06:32:15;7.00;;;3.10;;
34072;SDS011;20346;52.702;16.886;2023-04-19T06:34:55;4.20;;;2.80;;
34072;SDS011;20346;52.702;16.886;2023-04-19T06:37:38;5.90;;;2.90;;
34072;SDS011;20346;52.702;16.886;2023-04-19T06:40:18;6.40;;;3.00;;
34072;SDS011;20346;52.702;16.886;2023-04-19T06:43:01;7.40;;;3.00;;
34072;SDS011;20346;52.702;16.886;2023-04-19T06:45:41;7.00;;;2.90;;
34072;SDS011;20346;52.702;16.886;2023-04-19T06:48:23;7.70;;;2.70;;
34072;SDS011;20346;52.702;16.886;2023-04-19T06:51:02;8.10;;;3.20;;
34072;SDS011;20346;52.702;16.886;2023-04-19T06:53:42;6.10;;;2.50;;
34072;SDS011;20346;52.702;16.886;2023-04-19T06:59:15;5.60;;;2.60;;
34072;SDS011;20346;52.702;16.886;2023-04-19T07:01:51;8.60;;;3.40;;
34072;SDS011;20346;52.702;16.886;2023-04-19T07:04:31;6.80;;;2.50;;
34072;SDS011;20346;52.702;16.886;2023-04-19T07:07:11;4.40;;;2.50;;
34072;SDS011;20346;52.702;16.886;2023-04-19T07:09:53;5.60;;;3.00;;
34072;SDS011;20346;52.702;16.886;2023-04-19T07:12:32;7.20;;;3.70;;
34072;SDS011;20346;52.702;16.886;2023-04-19T07:15:12;5.10;;;3.70;;
34072;SDS011;20346;52.702;16.886;2023-04-19T07:17:52;7.30;;;2.80;;
34072;SDS011;20346;52.702;16.886;2023-04-19T07:20:32;6.00;;;3.60;;
34072;SDS011;20346;52.702;16.886;2023-04-19T07:23:13;7.10;;;3.60;;
34072;SDS011;20346;52.702;16.886;2023-04-19T07:25:52;7.60;;;3.10;;
34072;SDS011;20346;52.702;16.886;2023-04-19T07:28:32;7.20;;;3.40;;
34072;SDS011;20346;52.702;16.886;2023-04-19T07:31:16;6.60;;;3.20;;
34072;SDS011;20346;52.702;16.886;2023-04-19T07:33:55;8.90;;;3.60;;
34072;SDS011;20346;52.702;16.886;2023-04-19T07:36:37;8.70;;;3.80;;
34072;SDS011;20346;52.702;16.886;2023-04-19T07:42:12;8.80;;;4.40;;
34072;SDS011;20346;52.702;16.886;2023-04-19T07:44:52;6.10;;;3.40;;
34072;SDS011;20346;52.702;16.886;2023-04-19T07:47:33;8.80;;;4.30;;
34072;SDS011;20346;52.702;16.886;2023-04-19T07:50:13;8.30;;;3.90;;
34072;SDS011;20346;52.702;16.886;2023-04-19T07:52:53;4.70;;;3.10;;
34072;SDS011;20346;52.702;16.886;2023-04-19T07:55:33;6.30;;;3.30;;
34072;SDS011;20346;52.702;16.886;2023-04-19T07:58:13;6.50;;;4.10;;
34072;SDS011;20346;52.702;16.886;2023-04-19T08:00:53;10.70;;;3.30;;
34072;SDS011;20346;52.702;16.886;2023-04-19T08:03:33;7.70;;;3.70;;
34072;SDS011;20346;52.702;16.886;2023-04-19T08:06:13;8.30;;;3.70;;
34072;SDS011;20346;52.702;16.886;2023-04-19T08:08:53;7.70;;;4.10;;
34072;SDS011;20346;52.702;16.886;2023-04-19T08:11:55;10.00;;;4.90;;
34072;SDS011;20346;52.702;16.886;2023-04-19T08:14:35;6.60;;;4.00;;
34072;SDS011;20346;52.702;16.886;2023-04-19T08:17:15;6.60;;;3.80;;
34072;SDS011;20346;52.702;16.886;2023-04-19T08:19:55;9.40;;;5.60;;
34072;SDS011;20346;52.702;16.886;2023-04-19T08:22:35;6.80;;;4.00;;
34072;SDS011;20346;52.702;16.886;2023-04-19T08:25:15;9.60;;;5.00;;
34072;SDS011;20346;52.702;16.886;2023-04-19T08:27:56;10.00;;;4.50;;
34072;SDS011;20346;52.702;16.886;2023-04-19T08:30:35;7.90;;;4.60;;
34072;SDS011;20346;52.702;16.886;2023-04-19T08:33:15;10.40;;;4.00;;
34072;SDS011;20346;52.702;16.886;2023-04-19T08:35:58;7.30;;;4.10;;
34072;SDS011;20346;52.702;16.886;2023-04-19T08:38:40;6.10;;;4.20;;
34072;SDS011;20346;52.702;16.886;2023-04-19T08:41:19;7.00;;;4.30;;
34072;SDS011;20346;52.702;16.886;2023-04-19T08:43:59;8.40;;;4.00;;
34072;SDS011;20346;52.702;16.886;2023-04-19T08:46:40;10.60;;;5.10;;
34072;SDS011;20346;52.702;16.886;2023-04-19T08:49:19;9.00;;;4.60;;
34072;SDS011;20346;52.702;16.886;2023-04-19T08:52:00;11.40;;;4.10;;
34072;SDS011;20346;52.702;16.886;2023-04-19T08:54:39;7.60;;;4.00;;
34072;SDS011;20346;52.702;16.886;2023-04-19T08:57:19;8.30;;;4.50;;
34072;SDS011;20346;52.702;16.886;2023-04-19T09:00:00;13.60;;;5.50;;
34072;SDS011;20346;52.702;16.886;2023-04-19T09:05:22;8.60;;;5.60;;
34072;SDS011;20346;52.702;16.886;2023-04-19T09:10:56;10.60;;;5.80;;
34072;SDS011;20346;52.702;16.886;2023-04-19T09:13:34;9.90;;;4.90;;
34072;SDS011;20346;52.702;16.886;2023-04-19T09:16:25;8.50;;;5.50;;
34072;SDS011;20346;52.702;16.886;2023-04-19T09:19:06;11.40;;;5.70;;
34072;SDS011;20346;52.702;16.886;2023-04-19T09:21:45;7.00;;;5.40;;
34072;SDS011;20346;52.702;16.886;2023-04-19T09:24:38;9.20;;;5.40;;
34072;SDS011;20346;52.702;16.886;2023-04-19T09:27:24;9.20;;;5.20;;
34072;SDS011;20346;52.702;16.886;2023-04-19T09:29:58;9.10;;;5.70;;
34072;SDS011;20346;52.702;16.886;2023-04-19T09:32:44;9.50;;;5.80;;
34072;SDS011;20346;52.702;16.886;2023-04-19T09:35:38;14.50;;;8.60;;
34072;SDS011;20346;52.702;16.886;2023-04-19T09:38:03;21.00;;;12.20;;
34072;SDS011;20346;52.702;16.886;2023-04-19T09:40:44;33.30;;;21.90;;
34072;SDS011;20346;52.702;16.886;2023-04-19T09:43:24;16.90;;;11.80;;
34072;SDS011;20346;52.702;16.886;2023-04-19T09:46:03;45.10;;;25.80;;
34072;SDS011;20346;52.702;16.886;2023-04-19T09:48:44;10.90;;;8.50;;
34072;SDS011;20346;52.702;16.886;2023-04-19T09:51:24;8.40;;;6.60;;
34072;SDS011;20346;52.702;16.886;2023-04-19T09:54:04;17.00;;;11.00;;
34072;SDS011;20346;52.702;16.886;2023-04-19T09:56:44;11.20;;;5.80;;
34072;SDS011;20346;52.702;16.886;2023-04-19T09:59:25;9.20;;;5.20;;
34072;SDS011;20346;52.702;16.886;2023-04-19T10:02:09;9.30;;;6.10;;
34072;SDS011;20346;52.702;16.886;2023-04-19T10:04:49;13.20;;;7.80;;
34072;SDS011;20346;52.702;16.886;2023-04-19T10:07:29;9.10;;;7.00;;
34072;SDS011;20346;52.702;16.886;2023-04-19T10:10:09;10.60;;;7.40;;
34072;SDS011;20346;52.702;16.886;2023-04-19T10:12:50;14.20;;;8.40;;
34072;SDS011;20346;52.702;16.886;2023-04-19T10:18:24;49.60;;;30.90;;
34072;SDS011;20346;52.702;16.886;2023-04-19T10:21:05;20.10;;;13.20;;
34072;SDS011;20346;52.702;16.886;2023-04-19T10:23:45;19.20;;;11.10;;
34072;SDS011;20346;52.702;16.886;2023-04-19T10:32:36;58.00;;;40.80;;
34072;SDS011;20346;52.702;16.886;2023-04-19T10:35:19;20.50;;;13.60;;
34072;SDS011;20346;52.702;16.886;2023-04-19T10:38:06;15.90;;;10.70;;
34072;SDS011;20346;52.702;16.886;2023-04-19T10:43:35;15.70;;;10.50;;
34072;SDS011;20346;52.702;16.886;2023-04-19T10:46:16;14.20;;;9.50;;
34072;SDS011;20346;52.702;16.886;2023-04-19T10:48:58;11.60;;;7.30;;
34072;SDS011;20346;52.702;16.886;2023-04-19T10:51:38;11.50;;;7.20;;
34072;SDS011;20346;52.702;16.886;2023-04-19T10:54:27;12.60;;;8.90;;
34072;SDS011;20346;52.702;16.886;2023-04-19T10:57:07;30.30;;;19.60;;
34072;SDS011;20346;52.702;16.886;2023-04-19T10:59:47;12.10;;;8.40;;
34072;SDS011;20346;52.702;16.886;2023-04-19T11:02:27;16.50;;;9.60;;
34072;SDS011;20346;52.702;16.886;2023-04-19T11:05:10;13.40;;;9.90;;
34072;SDS011;20346;52.702;16.886;2023-04-19T11:16:29;18.70;;;10.40;;
34072;SDS011;20346;52.702;16.886;2023-04-19T11:19:09;16.70;;;10.60;;
34072;SDS011;20346;52.702;16.886;2023-04-19T11:30:42;20.60;;;11.50;;
34072;SDS011;20346;52.702;16.886;2023-04-19T11:33:22;14.20;;;9.20;;
34072;SDS011;20346;52.702;16.886;2023-04-19T11:47:27;14.90;;;9.60;;
34072;SDS011;20346;52.702;16.886;2023-04-19T11:53:10;21.60;;;12.80;;
34072;SDS011;20346;52.702;16.886;2023-04-19T11:55:50;18.60;;;11.10;;
34072;SDS011;20346;52.702;16.886;2023-04-19T12:04:19;12.00;;;8.00;;
34072;SDS011;20346;52.702;16.886;2023-04-19T12:12:47;12.90;;;8.60;;
34072;SDS011;20346;52.702;16.886;2023-04-19T12:18:21;10.80;;;8.90;;
34072;SDS011;20346;52.702;16.886;2023-04-19T12:21:02;11.10;;;9.50;;
34072;SDS011;20346;52.702;16.886;2023-04-19T12:23:48;14.30;;;9.90;;
34072;SDS011;20346;52.702;16.886;2023-04-19T12:26:28;11.70;;;8.70;;
34072;SDS011;20346;52.702;16.886;2023-04-19T12:32:02;15.30;;;9.80;;
34072;SDS011;20346;52.702;16.886;2023-04-19T12:34:42;16.90;;;12.20;;
34072;SDS011;20346;52.702;16.886;2023-04-19T12:46:08;11.90;;;8.50;;
34072;SDS011;20346;52.702;16.886;2023-04-19T12:48:46;14.60;;;9.20;;
34072;SDS011;20346;52.702;16.886;2023-04-19T12:51:26;10.60;;;8.90;;
34072;SDS011;20346;52.702;16.886;2023-04-19T12:54:06;12.30;;;8.50;;
34072;SDS011;20346;52.702;16.886;2023-04-19T13:00:34;14.70;;;9.00;;
34072;SDS011;20346;52.702;16.886;2023-04-19T13:03:15;16.90;;;9.90;;
34072;SDS011;20346;52.702;16.886;2023-04-19T13:05:55;15.10;;;9.50;;
34072;SDS011;20346;52.702;16.886;2023-04-19T13:08:40;14.60;;;9.50;;
34072;SDS011;20346;52.702;16.886;2023-04-19T13:12:27;14.70;;;10.70;;
34072;SDS011;20346;52.702;16.886;2023-04-19T13:16:13;13.70;;;10.40;;
34072;SDS011;20346;52.702;16.886;2023-04-19T13:24:31;14.10;;;8.30;;
34072;SDS011;20346;52.702;16.886;2023-04-19T13:28:17;14.00;;;9.20;;
34072;SDS011;20346;52.702;16.886;2023-04-19T13:32:04;16.70;;;12.40;;
34072;SDS011;20346;52.702;16.886;2023-04-19T13:35:51;22.50;;;16.40;;
34072;SDS011;20346;52.702;16.886;2023-04-19T13:39:37;19.10;;;15.50;;
34072;SDS011;20346;52.702;16.886;2023-04-19T13:42:11;14.10;;;10.40;;
34072;SDS011;20346;52.702;16.886;2023-04-19T13:44:44;19.90;;;12.00;;
34072;SDS011;20346;52.702;16.886;2023-04-19T13:48:31;50.10;;;30.70;;
34072;SDS011;20346;52.702;16.886;2023-04-19T13:52:23;28.70;;;17.70;;
34072;SDS011;20346;52.702;16.886;2023-04-19T13:55:03;70.60;;;36.80;;
34072;SDS011;20346;52.702;16.886;2023-04-19T13:57:36;39.40;;;27.40;;
34072;SDS011;20346;52.702;16.886;2023-04-19T14:00:10;22.20;;;16.80;;
34072;SDS011;20346;52.702;16.886;2023-04-19T14:02:44;23.80;;;18.50;;
34072;SDS011;20346;52.702;16.886;2023-04-19T14:05:17;20.00;;;14.00;;
34072;SDS011;20346;52.702;16.886;2023-04-19T14:07:51;82.20;;;41.90;;
34072;SDS011;20346;52.702;16.886;2023-04-19T14:13:12;33.50;;;18.00;;
34072;SDS011;20346;52.702;16.886;2023-04-19T14:15:45;28.60;;;17.50;;
34072;SDS011;20346;52.702;16.886;2023-04-19T14:19:32;26.50;;;15.30;;
34072;SDS011;20346;52.702;16.886;2023-04-19T14:22:47;13.80;;;9.70;;
34072;SDS011;20346;52.702;16.886;2023-04-19T14:25:26;22.60;;;11.20;;
34072;SDS011;20346;52.702;16.886;2023-04-19T14:28:00;16.90;;;12.90;;
34072;SDS011;20346;52.702;16.886;2023-04-19T14:30:34;10.80;;;8.80;;
34072;SDS011;20346;52.702;16.886;2023-04-19T14:33:07;11.90;;;9.80;;
34072;SDS011;20346;52.702;16.886;2023-04-19T14:35:41;15.10;;;11.20;;
34072;SDS011;20346;52.702;16.886;2023-04-19T14:38:17;13.40;;;9.40;;
34072;SDS011;20346;52.702;16.886;2023-04-19T14:40:48;9.80;;;7.50;;
34072;SDS011;20346;52.702;16.886;2023-04-19T14:43:21;10.00;;;8.30;;
34072;SDS011;20346;52.702;16.886;2023-04-19T14:47:08;23.10;;;12.10;;
34072;SDS011;20346;52.702;16.886;2023-04-19T14:49:44;9.60;;;8.50;;
34072;SDS011;20346;52.702;16.886;2023-04-19T14:52:18;9.40;;;8.40;;
34072;SDS011;20346;52.702;16.886;2023-04-19T14:54:52;9.50;;;7.30;;
34072;SDS011;20346;52.702;16.886;2023-04-19T14:57:26;8.10;;;7.30;;
34072;SDS011;20346;52.702;16.886;2023-04-19T15:00:01;14.60;;;9.80;;
34072;SDS011;20346;52.702;16.886;2023-04-19T15:02:35;19.90;;;10.70;;
34072;SDS011;20346;52.702;16.886;2023-04-19T15:05:08;10.50;;;8.20;;
34072;SDS011;20346;52.702;16.886;2023-04-19T15:07:42;15.40;;;9.00;;
34072;SDS011;20346;52.702;16.886;2023-04-19T15:10:16;15.80;;;9.80;;
34072;SDS011;20346;52.702;16.886;2023-04-19T15:12:55;11.90;;;9.70;;
34072;SDS011;20346;52.702;16.886;2023-04-19T15:15:31;10.40;;;9.30;;
34072;SDS011;20346;52.702;16.886;2023-04-19T15:18:04;14.90;;;13.40;;
34072;SDS011;20346;52.702;16.886;2023-04-19T15:20:41;10.70;;;9.60;;
34072;SDS011;20346;52.702;16.886;2023-04-19T15:23:14;29.10;;;17.60;;
34072;SDS011;20346;52.702;16.886;2023-04-19T15:25:49;18.40;;;15.20;;
34072;SDS011;20346;52.702;16.886;2023-04-19T15:28:23;43.30;;;29.40;;
34072;SDS011;20346;52.702;16.886;2023-04-19T15:30:57;14.90;;;12.80;;
34072;SDS011;20346;52.702;16.886;2023-04-19T15:33:33;15.40;;;12.40;;
34072;SDS011;20346;52.702;16.886;2023-04-19T15:36:05;14.40;;;12.80;;
34072;SDS011;20346;52.702;16.886;2023-04-19T15:38:39;15.50;;;11.60;;
34072;SDS011;20346;52.702;16.886;2023-04-19T15:41:15;15.30;;;12.40;;
34072;SDS011;20346;52.702;16.886;2023-04-19T15:43:49;14.60;;;12.20;;
34072;SDS011;20346;52.702;16.886;2023-04-19T15:46:22;21.90;;;14.10;;
34072;SDS011;20346;52.702;16.886;2023-04-19T15:48:56;12.40;;;9.60;;
34072;SDS011;20346;52.702;16.886;2023-04-19T15:51:30;14.70;;;10.90;;
34072;SDS011;20346;52.702;16.886;2023-04-19T15:54:04;16.20;;;11.40;;
34072;SDS011;20346;52.702;16.886;2023-04-19T15:56:38;19.40;;;14.10;;
34072;SDS011;20346;52.702;16.886;2023-04-19T15:59:12;18.50;;;13.50;;
34072;SDS011;20346;52.702;16.886;2023-04-19T16:01:49;16.00;;;12.40;;
34072;SDS011;20346;52.702;16.886;2023-04-19T16:04:25;14.70;;;11.00;;
34072;SDS011;20346;52.702;16.886;2023-04-19T16:06:59;14.30;;;11.00;;
34072;SDS011;20346;52.702;16.886;2023-04-19T16:09:32;16.90;;;12.00;;
34072;SDS011;20346;52.702;16.886;2023-04-19T16:12:09;11.40;;;9.50;;
34072;SDS011;20346;52.702;16.886;2023-04-19T16:15:55;15.30;;;10.50;;
34072;SDS011;20346;52.702;16.886;2023-04-19T16:19:42;13.70;;;11.80;;
34072;SDS011;20346;52.702;16.886;2023-04-19T16:23:28;18.70;;;12.20;;
34072;SDS011;20346;52.702;16.886;2023-04-19T16:27:15;16.70;;;12.20;;
34072;SDS011;20346;52.702;16.886;2023-04-19T16:29:54;13.50;;;11.30;;
34072;SDS011;20346;52.702;16.886;2023-04-19T16:33:41;17.20;;;13.40;;
34072;SDS011;20346;52.702;16.886;2023-04-19T16:37:28;16.30;;;12.60;;
34072;SDS011;20346;52.702;16.886;2023-04-19T16:41:16;22.40;;;15.70;;
34072;SDS011;20346;52.702;16.886;2023-04-19T16:49:28;18.70;;;15.40;;
34072;SDS011;20346;52.702;16.886;2023-04-19T16:53:18;20.50;;;14.00;;
34072;SDS011;20346;52.702;16.886;2023-04-19T17:08:12;30.70;;;21.10;;
34072;SDS011;20346;52.702;16.886;2023-04-19T17:10:46;19.80;;;17.10;;
34072;SDS011;20346;52.702;16.886;2023-04-19T17:14:06;29.40;;;19.50;;
34072;SDS011;20346;52.702;16.886;2023-04-19T17:16:41;21.90;;;17.50;;
34072;SDS011;20346;52.702;16.886;2023-04-19T17:19:14;21.30;;;17.80;;
34072;SDS011;20346;52.702;16.886;2023-04-19T17:21:48;24.70;;;18.80;;
34072;SDS011;20346;52.702;16.886;2023-04-19T17:24:21;24.00;;;17.00;;
34072;SDS011;20346;52.702;16.886;2023-04-19T17:28:08;26.30;;;15.30;;
34072;SDS011;20346;52.702;16.886;2023-04-19T17:31:03;21.70;;;16.90;;
34072;SDS011;20346;52.702;16.886;2023-04-19T17:33:37;19.40;;;14.70;;
34072;SDS011;20346;52.702;16.886;2023-04-19T17:36:12;15.30;;;13.70;;
34072;SDS011;20346;52.702;16.886;2023-04-19T17:39:14;18.10;;;14.30;;
34072;SDS011;20346;52.702;16.886;2023-04-19T17:41:59;25.00;;;17.70;;
34072;SDS011;20346;52.702;16.886;2023-04-19T17:44:34;34.40;;;21.50;;
34072;SDS011;20346;52.702;16.886;2023-04-19T17:47:07;36.50;;;22.30;;
34072;SDS011;20346;52.702;16.886;2023-04-19T17:49:44;46.80;;;24.60;;
34072;SDS011;20346;52.702;16.886;2023-04-19T17:52:17;39.70;;;23.30;;
34072;SDS011;20346;52.702;16.886;2023-04-19T17:54:51;53.90;;;26.00;;
34072;SDS011;20346;52.702;16.886;2023-04-19T17:57:24;49.50;;;24.80;;
34072;SDS011;20346;52.702;16.886;2023-04-19T17:59:59;32.90;;;20.20;;
34072;SDS011;20346;52.702;16.886;2023-04-19T18:02:33;20.00;;;16.30;;
34072;SDS011;20346;52.702;16.886;2023-04-19T18:05:07;26.30;;;17.30;;
34072;SDS011;20346;52.702;16.886;2023-04-19T18:07:40;25.10;;;16.70;;
34072;SDS011;20346;52.702;16.886;2023-04-19T18:10:14;25.00;;;17.90;;
34072;SDS011;20346;52.702;16.886;2023-04-19T18:12:48;19.10;;;15.50;;
34072;SDS011;20346;52.702;16.886;2023-04-19T18:15:44;25.60;;;19.20;;
34072;SDS011;20346;52.702;16.886;2023-04-19T20:19:20;18.90;;;14.40;;
34072;SDS011;20346;52.702;16.886;2023-04-19T20:22:00;21.40;;;14.90;;
34072;SDS011;20346;52.702;16.886;2023-04-19T20:25:11;21.30;;;15.20;;
34072;SDS011;20346;52.702;16.886;2023-04-19T20:29:02;18.50;;;15.40;;
34072;SDS011;20346;52.702;16.886;2023-04-19T20:32:49;18.90;;;15.00;;
34072;SDS011;20346;52.702;16.886;2023-04-19T20:36:36;19.40;;;15.10;;
34072;SDS011;20346;52.702;16.886;2023-04-19T20:40:23;20.20;;;15.60;;
34072;SDS011;20346;52.702;16.886;2023-04-19T20:44:09;22.40;;;16.50;;
34072;SDS011;20346;52.702;16.886;2023-04-19T20:47:56;25.60;;;18.00;;
34072;SDS011;20346;52.702;16.886;2023-04-19T20:50:36;24.50;;;18.40;;
34072;SDS011;20346;52.702;16.886;2023-04-19T20:53:16;21.50;;;17.40;;
34072;SDS011;20346;52.702;16.886;2023-04-19T20:55:54;26.30;;;19.80;;
34072;SDS011;20346;52.702;16.886;2023-04-19T20:59:41;25.00;;;18.90;;
34072;SDS011;20346;52.702;16.886;2023-04-19T21:03:28;28.10;;;20.90;;
34072;SDS011;20346;52.702;16.886;2023-04-19T21:07:15;33.50;;;21.50;;
34072;SDS011;20346;52.702;16.886;2023-04-19T21:11:01;34.40;;;22.60;;
34072;SDS011;20346;52.702;16.886;2023-04-19T21:14:04;34.40;;;21.10;;
34072;SDS011;20346;52.702;16.886;2023-04-19T21:16:38;31.10;;;22.10;;
34072;SDS011;20346;52.702;16.886;2023-04-19T21:19:13;33.40;;;22.50;;
34072;SDS011;20346;52.702;16.886;2023-04-19T21:21:47;28.10;;;22.50;;
34072;SDS011;20346;52.702;16.886;2023-04-19T21:25:02;27.80;;;21.20;;
34072;SDS011;20346;52.702;16.886;2023-04-19T21:28:50;31.70;;;20.70;;
34072;SDS011;20346;52.702;16.886;2023-04-19T21:31:22;31.90;;;21.70;;
34072;SDS011;20346;52.702;16.886;2023-04-19T21:34:22;29.00;;;21.50;;
34072;SDS011;20346;52.702;16.886;2023-04-19T21:38:08;28.50;;;21.30;;
34072;SDS011;20346;52.702;16.886;2023-04-19T21:41:57;28.90;;;21.00;;
34072;SDS011;20346;52.702;16.886;2023-04-19T21:45:43;30.30;;;21.50;;
34072;SDS011;20346;52.702;16.886;2023-04-19T21:49:30;28.00;;;20.50;;
34072;SDS011;20346;52.702;16.886;2023-04-19T21:53:17;29.80;;;20.60;;
34072;SDS011;20346;52.702;16.886;2023-04-19T21:57:04;27.80;;;20.10;;
34072;SDS011;20346;52.702;16.886;2023-04-19T22:00:50;28.70;;;20.80;;
34072;SDS011;20346;52.702;16.886;2023-04-19T22:04:37;27.40;;;21.10;;
34072;SDS011;20346;52.702;16.886;2023-04-19T22:08:24;27.60;;;20.50;;
34072;SDS011;20346;52.702;16.886;2023-04-19T22:12:11;29.60;;;20.60;;
34072;SDS011;20346;52.702;16.886;2023-04-19T22:15:58;26.80;;;19.80;;
34072;SDS011;20346;52.702;16.886;2023-04-19T22:19:45;30.90;;;20.20;;
34072;SDS011;20346;52.702;16.886;2023-04-19T22:23:33;29.30;;;20.20;;
34072;SDS011;20346;52.702;16.886;2023-04-19T22:27:20;27.50;;;20.50;;
34072;SDS011;20346;52.702;16.886;2023-04-19T22:31:14;26.40;;;19.90;;
34072;SDS011;20346;52.702;16.886;2023-04-19T22:35:00;27.30;;;20.00;;
34072;SDS011;20346;52.702;16.886;2023-04-19T22:38:47;26.60;;;19.40;;
34072;SDS011;20346;52.702;16.886;2023-04-19T22:42:34;24.50;;;19.60;;
34072;SDS011;20346;52.702;16.886;2023-04-19T22:45:34;26.40;;;19.50;;
34072;SDS011;20346;52.702;16.886;2023-04-19T22:49:22;26.80;;;19.70;;
34072;SDS011;20346;52.702;16.886;2023-04-19T22:53:12;24.50;;;19.20;;
34072;SDS011;20346;52.702;16.886;2023-04-19T22:57:04;27.10;;;20.30;;
34072;SDS011;20346;52.702;16.886;2023-04-19T23:00:10;26.90;;;20.50;;
34072;SDS011;20346;52.702;16.886;2023-04-19T23:02:54;23.70;;;19.50;;
34072;SDS011;20346;52.702;16.886;2023-04-19T23:06:42;23.90;;;18.80;;
34072;SDS011;20346;52.702;16.886;2023-04-19T23:10:28;24.70;;;20.40;;
34072;SDS011;20346;52.702;16.886;2023-04-19T23:16:06;24.60;;;19.60;;
34072;SDS011;20346;52.702;16.886;2023-04-19T23:19:54;27.80;;;20.50;;
34072;SDS011;20346;52.702;16.886;2023-04-19T23:22:31;28.80;;;20.50;;
34072;SDS011;20346;52.702;16.886;2023-04-19T23:25:09;29.40;;;21.30;;
34072;SDS011;20346;52.702;16.886;2023-04-19T23:28:57;25.90;;;20.20;;
34072;SDS011;20346;52.702;16.886;2023-04-19T23:32:46;22.90;;;18.90;;
34072;SDS011;20346;52.702;16.886;2023-04-19T23:36:32;26.10;;;19.50;;
34072;SDS011;20346;52.702;16.886;2023-04-19T23:40:19;25.60;;;18.90;;
34072;SDS011;20346;52.702;16.886;2023-04-19T23:44:06;26.60;;;21.00;;
34072;SDS011;20346;52.702;16.886;2023-04-19T23:47:53;31.10;;;19.60;;
34072;SDS011;20346;52.702;16.886;2023-04-19T23:51:40;26.10;;;19.60;;
34072;SDS011;20346;52.702;16.886;2023-04-19T23:55:29;26.40;;;19.40;;
34072;SDS011;20346;52.702;16.886;2023-04-19T23:59:16;26.40;;;19.30;;
